createdAt,value
2018-10-19T00:00:04.170Z,22.47
2018-10-19T00:02:32.305Z,23.97
2018-10-19T00:05:00.483Z,23.40
2018-10-19T00:07:28.624Z,22.40
2018-10-19T00:09:56.781Z,20.07
2018-10-19T00:12:25.009Z,22.57
2018-10-19T00:14:53.192Z,21.93
2018-10-19T00:17:21.316Z,24.63
2018-10-19T00:19:49.465Z,23.90
2018-10-19T00:22:17.616Z,23.33
2018-10-19T00:33:55.036Z,23.60
2018-10-19T00:36:23.198Z,23.97
2018-10-19T00:38:51.369Z,23.87
2018-10-19T00:50:15.425Z,24.70
2018-10-19T00:52:43.590Z,23.67
2018-10-19T00:55:11.757Z,22.60
2018-10-19T00:57:39.954Z,24.13
2018-10-19T01:00:08.129Z,23.60
2018-10-19T01:02:36.325Z,23.00
2018-10-19T01:05:04.690Z,24.73
2018-10-19T01:07:32.902Z,22.03
2018-10-19T01:10:01.134Z,23.60
2018-10-19T01:12:29.422Z,24.87
2018-10-19T01:14:57.640Z,24.20
2018-10-19T01:17:25.775Z,23.40
2018-10-19T01:19:53.940Z,24.20
2018-10-19T01:22:22.170Z,25.40
2018-10-19T01:24:50.390Z,23.50
2018-10-19T01:27:18.597Z,25.03
2018-10-19T01:29:46.940Z,24.70
2018-10-19T01:32:15.123Z,24.03
2018-10-19T01:34:43.307Z,25.47
2018-10-19T01:37:11.533Z,27.37
2018-10-19T01:39:39.922Z,27.53
2018-10-19T01:42:08.160Z,27.67
2018-10-19T01:44:36.361Z,25.83
2018-10-19T01:47:04.589Z,26.67
2018-10-19T01:49:32.775Z,24.00
2018-10-19T01:52:00.945Z,23.67
2018-10-19T01:54:29.151Z,23.33
2018-10-19T01:56:57.356Z,24.30
2018-10-19T01:59:25.514Z,24.40
2018-10-19T02:01:53.687Z,24.13
2018-10-19T02:04:21.869Z,23.50
2018-10-19T02:06:50.063Z,24.17
2018-10-19T02:09:18.355Z,25.43
2018-10-19T02:11:46.519Z,24.50
2018-10-19T02:14:14.705Z,27.40
2018-10-19T02:16:42.950Z,28.30
2018-10-19T02:19:11.150Z,30.37
2018-10-19T02:21:39.340Z,27.23
2018-10-19T02:24:07.531Z,28.23
2018-10-19T02:26:35.746Z,28.50
2018-10-19T02:29:03.992Z,30.37
2018-10-19T02:31:32.263Z,31.30
2018-10-19T02:34:00.451Z,31.00
2018-10-19T02:36:28.683Z,32.00
2018-10-19T02:38:57.020Z,30.43
2018-10-19T02:41:25.147Z,29.37
2018-10-19T02:43:53.363Z,31.10
2018-10-19T02:46:21.584Z,30.50
2018-10-19T02:48:49.768Z,28.73
2018-10-19T02:51:18.010Z,27.60
2018-10-19T02:53:46.125Z,27.60
2018-10-19T02:56:14.370Z,29.13
2018-10-19T02:58:42.537Z,28.10
2018-10-19T03:01:10.739Z,29.77
2018-10-19T03:03:38.928Z,28.40
2018-10-19T03:06:07.148Z,30.07
2018-10-19T03:08:35.337Z,28.40
2018-10-19T03:11:03.593Z,28.83
2018-10-19T03:13:31.755Z,30.50
2018-10-19T03:15:59.932Z,28.50
2018-10-19T03:18:28.120Z,28.57
2018-10-19T03:20:56.327Z,29.03
2018-10-19T03:23:24.497Z,28.30
2018-10-19T03:25:52.692Z,28.87
2018-10-19T03:28:20.875Z,28.10
2018-10-19T03:30:49.092Z,28.90
2018-10-19T03:33:17.327Z,29.43
2018-10-19T03:35:45.441Z,29.07
2018-10-19T03:38:13.613Z,29.07
2018-10-19T03:40:41.805Z,29.17
2018-10-19T03:43:09.981Z,32.07
2018-10-19T03:45:38.188Z,29.30
2018-10-19T03:48:06.406Z,30.07
2018-10-19T03:50:34.582Z,28.00
2018-10-19T03:53:02.812Z,30.80
2018-10-19T03:55:31.140Z,30.73
2018-10-19T03:57:59.331Z,28.57
2018-10-19T04:00:27.493Z,31.07
2018-10-19T04:02:55.805Z,30.00
2018-10-19T04:05:24.618Z,28.10
2018-10-19T04:07:52.786Z,31.10
2018-10-19T04:10:21.079Z,29.07
2018-10-19T04:12:49.486Z,27.80
2018-10-19T04:15:17.977Z,31.13
2018-10-19T04:17:46.098Z,28.07
2018-10-19T04:20:14.253Z,30.10
2018-10-19T04:22:42.450Z,32.37
2018-10-19T04:25:10.626Z,34.83
2018-10-19T04:27:38.887Z,36.63
2018-10-19T04:30:07.584Z,36.07
2018-10-19T04:32:35.761Z,32.10
2018-10-19T04:35:04.027Z,32.33
2018-10-19T04:37:32.120Z,31.17
2018-10-19T04:40:00.313Z,32.83
2018-10-19T04:42:28.656Z,31.63
2018-10-19T04:44:56.856Z,31.63
2018-10-19T04:47:25.031Z,32.80
2018-10-19T04:49:53.231Z,32.03
2018-10-19T04:52:21.498Z,31.73
2018-10-19T04:54:49.664Z,31.10
2018-10-19T04:57:18.010Z,31.90
2018-10-19T04:59:46.198Z,33.10
2018-10-19T05:02:14.461Z,31.03
2018-10-19T05:04:42.827Z,31.03
2018-10-19T05:07:10.942Z,32.47
2018-10-19T05:09:39.115Z,31.93
2018-10-19T05:12:07.302Z,31.73
2018-10-19T05:14:35.482Z,30.90
2018-10-19T05:17:03.703Z,33.60
2018-10-19T05:19:32.056Z,34.53
2018-10-19T05:22:00.319Z,32.97
2018-10-19T05:24:28.557Z,32.30
2018-10-19T05:26:57.905Z,35.20
2018-10-19T05:29:26.086Z,37.00
2018-10-19T05:31:54.621Z,34.77
2018-10-19T05:34:22.770Z,36.20
2018-10-19T05:36:50.942Z,36.27
2018-10-19T05:39:19.143Z,37.87
2018-10-19T05:41:47.314Z,35.20
2018-10-19T05:44:15.599Z,36.70
2018-10-19T05:46:43.658Z,37.60
2018-10-19T05:49:12.012Z,38.67
2018-10-19T05:51:40.183Z,37.90
2018-10-19T05:54:08.369Z,37.83
2018-10-19T05:56:36.548Z,41.90
2018-10-19T05:59:04.855Z,39.50
2018-10-19T06:01:32.962Z,37.23
2018-10-19T06:04:01.106Z,35.50
2018-10-19T06:06:29.279Z,35.90
2018-10-19T06:08:57.458Z,35.20
2018-10-19T06:11:25.621Z,35.70
2018-10-19T06:13:53.780Z,34.57
2018-10-19T06:16:22.027Z,33.50
2018-10-19T06:18:50.874Z,33.27
2018-10-19T06:21:19.077Z,31.30
2018-10-19T06:23:47.258Z,32.47
2018-10-19T06:26:15.490Z,31.43
2018-10-19T06:28:43.655Z,33.03
2018-10-19T06:31:11.898Z,33.07
2018-10-19T06:33:40.181Z,34.60
2018-10-19T06:36:08.250Z,35.50
2018-10-19T06:38:36.422Z,39.80
2018-10-19T06:41:04.648Z,38.40
2018-10-19T06:43:32.867Z,42.43
2018-10-19T06:46:01.041Z,40.60
2018-10-19T06:48:29.227Z,42.60
2018-10-19T06:50:57.436Z,41.20
2018-10-19T06:53:25.618Z,44.13
2018-10-19T06:55:53.828Z,41.23
2018-10-19T06:58:22.003Z,42.40
2018-10-19T07:00:50.197Z,41.43
2018-10-19T07:03:18.403Z,42.40
2018-10-19T07:05:47.077Z,42.63
2018-10-19T07:08:15.249Z,42.30
2018-10-19T07:10:43.542Z,39.70
2018-10-19T07:13:11.745Z,41.30
2018-10-19T07:15:40.146Z,39.67
2018-10-19T07:18:08.381Z,39.63
2018-10-19T07:20:40.727Z,36.93
2018-10-19T07:23:08.928Z,38.00
2018-10-19T07:25:37.116Z,37.57
2018-10-19T07:28:05.842Z,36.63
2018-10-19T07:30:34.007Z,39.50
2018-10-19T07:33:02.197Z,39.60
2018-10-19T07:35:30.514Z,38.80
2018-10-19T07:37:58.774Z,41.50
2018-10-19T07:40:26.925Z,42.63
2018-10-19T07:42:55.174Z,39.03
2018-10-19T07:45:23.368Z,40.47
2018-10-19T07:47:51.771Z,41.23
2018-10-19T07:50:19.774Z,38.93
2018-10-19T07:52:47.988Z,39.87
2018-10-19T07:55:16.177Z,40.20
2018-10-19T07:57:44.385Z,39.10
2018-10-19T08:00:12.674Z,39.40
2018-10-19T08:02:40.929Z,43.37
2018-10-19T08:05:10.195Z,41.70
2018-10-19T08:07:38.367Z,41.47
2018-10-19T08:10:07.995Z,39.97
2018-10-19T08:12:36.218Z,41.63
2018-10-19T08:15:05.215Z,40.47
2018-10-19T08:17:33.497Z,40.33
2018-10-19T08:20:01.721Z,41.27
2018-10-19T08:22:29.967Z,41.87
2018-10-19T08:24:58.182Z,43.60
2018-10-19T08:27:26.455Z,45.17
2018-10-19T08:29:54.609Z,45.53
2018-10-19T08:32:23.093Z,46.13
2018-10-19T08:34:51.317Z,47.27
2018-10-19T08:37:19.524Z,49.57
2018-10-19T08:39:47.737Z,47.53
2018-10-19T08:42:15.944Z,46.83
2018-10-19T08:44:44.160Z,49.57
2018-10-19T08:47:12.402Z,49.17
2018-10-19T08:49:40.607Z,46.20
2018-10-19T08:52:08.840Z,46.00
2018-10-19T08:54:37.272Z,45.50
2018-10-19T08:57:05.902Z,47.30
2018-10-19T08:59:34.069Z,46.67
2018-10-19T09:02:02.281Z,48.00
2018-10-19T09:04:30.496Z,49.60
2018-10-19T09:06:58.693Z,49.60
2018-10-19T09:09:26.943Z,48.37
2018-10-19T09:11:55.297Z,50.13
2018-10-19T09:14:34.582Z,47.60
2018-10-19T09:17:02.868Z,50.53
2018-10-19T09:19:30.995Z,48.10
2018-10-19T09:21:59.241Z,49.77
2018-10-19T09:24:27.449Z,51.53
2018-10-19T09:26:55.728Z,53.97
2018-10-19T09:29:23.964Z,52.57
2018-10-19T09:31:52.122Z,52.77
2018-10-19T09:34:20.321Z,52.67
2018-10-19T09:36:48.619Z,53.73
2018-10-19T09:39:16.795Z,53.33
2018-10-19T09:41:44.946Z,51.37
2018-10-19T09:44:13.194Z,50.00
2018-10-19T09:46:41.845Z,52.30
2018-10-19T09:49:11.884Z,50.50
2018-10-19T09:51:40.705Z,53.57
2018-10-19T09:54:10.221Z,49.93
2018-10-19T09:56:38.457Z,49.23
2018-10-19T09:59:06.786Z,50.53
2018-10-19T10:01:35.354Z,50.07
2018-10-19T10:04:03.586Z,49.80
2018-10-19T10:06:31.857Z,49.83
2018-10-19T10:09:00.101Z,49.57
2018-10-19T10:11:28.329Z,49.40
2018-10-19T10:13:56.626Z,49.37
2018-10-19T10:16:24.912Z,49.80
2018-10-19T10:18:53.268Z,48.00
2018-10-19T10:21:21.441Z,49.50
2018-10-19T10:23:49.712Z,46.30
2018-10-19T10:26:18.047Z,48.70
2018-10-19T10:28:46.310Z,48.03
2018-10-19T10:31:15.141Z,47.83
2018-10-19T10:33:43.315Z,50.13
2018-10-19T10:36:11.506Z,48.43
2018-10-19T10:38:39.833Z,47.63
2018-10-19T10:41:08.006Z,49.00
2018-10-19T10:43:36.228Z,50.07
2018-10-19T10:46:04.583Z,50.60
2018-10-19T10:48:33.262Z,48.40
2018-10-19T10:51:01.617Z,50.70
2018-10-19T10:53:29.905Z,51.00
2018-10-19T10:55:58.244Z,50.20
2018-10-19T10:58:26.509Z,51.50
2018-10-19T11:00:54.869Z,51.40
2018-10-19T11:03:23.294Z,51.57
2018-10-19T11:05:51.719Z,50.93
2018-10-19T11:08:21.243Z,50.63
2018-10-19T11:10:49.722Z,53.37
2018-10-19T11:13:17.909Z,51.33
2018-10-19T11:15:46.178Z,52.30
2018-10-19T11:18:14.401Z,52.10
2018-10-19T11:20:42.870Z,51.50
2018-10-19T11:23:11.142Z,53.13
2018-10-19T11:25:39.543Z,50.27
2018-10-19T11:28:07.864Z,52.60
2018-10-19T11:30:36.174Z,52.83
2018-10-19T11:33:04.732Z,51.70
2018-10-19T11:35:33.022Z,50.23
2018-10-19T11:38:01.715Z,52.20
2018-10-19T11:40:34.462Z,52.47
2018-10-19T11:43:02.724Z,53.07
2018-10-19T11:45:32.152Z,48.97
2018-10-19T11:48:01.178Z,54.30
2018-10-19T11:50:29.469Z,52.77
2018-10-19T11:52:57.721Z,53.93
2018-10-19T11:55:26.565Z,55.20
2018-10-19T11:57:54.812Z,53.40
2018-10-19T12:00:23.141Z,53.63
2018-10-19T12:02:51.387Z,53.30
2018-10-19T12:05:19.606Z,52.30
2018-10-19T12:07:47.798Z,50.70
2018-10-19T12:10:16.054Z,55.70
2018-10-19T12:12:44.393Z,54.83
2018-10-19T12:15:13.866Z,53.87
2018-10-19T12:17:42.781Z,54.27
2018-10-19T12:20:13.582Z,53.47
2018-10-19T12:22:41.831Z,51.80
2018-10-19T12:25:10.838Z,54.10
2018-10-19T12:27:39.474Z,53.90
2018-10-19T12:30:08.415Z,54.80
2018-10-19T12:32:36.785Z,52.73
2018-10-19T12:35:06.245Z,54.53
2018-10-19T12:37:34.450Z,55.87
2018-10-19T12:40:03.537Z,53.20
2018-10-19T12:42:31.713Z,53.60
2018-10-19T12:45:00.015Z,52.77
2018-10-19T12:47:32.746Z,53.60
2018-10-19T12:50:01.146Z,53.07
2018-10-19T12:52:29.368Z,52.07
2018-10-19T12:54:57.705Z,50.00
2018-10-19T12:57:25.864Z,49.77
2018-10-19T12:59:54.114Z,48.70
2018-10-19T13:02:22.318Z,51.03
2018-10-19T13:04:50.593Z,48.93
2018-10-19T13:07:18.845Z,49.40
2018-10-19T13:09:47.090Z,48.47
2018-10-19T13:12:15.309Z,48.30
2018-10-19T13:14:43.523Z,49.07
2018-10-19T13:17:11.750Z,49.67
2018-10-19T13:19:40.018Z,47.23
2018-10-19T13:22:08.282Z,48.17
2018-10-19T13:24:36.503Z,44.90
2018-10-19T13:27:04.759Z,46.93
2018-10-19T13:29:33.002Z,44.67
2018-10-19T13:32:01.220Z,50.23
2018-10-19T13:34:29.592Z,47.70
2018-10-19T13:36:57.823Z,47.93
2018-10-19T13:39:26.076Z,46.90
2018-10-19T13:41:54.278Z,46.30
2018-10-19T13:44:22.582Z,47.27
2018-10-19T13:46:50.817Z,44.87
2018-10-19T13:49:19.081Z,45.50
2018-10-19T13:51:47.278Z,47.20
2018-10-19T13:54:15.490Z,44.77
2018-10-19T13:56:43.776Z,43.40
2018-10-19T13:59:12.038Z,44.50
2018-10-19T14:01:40.271Z,48.87
2018-10-19T14:04:08.577Z,44.53
2018-10-19T14:06:36.811Z,46.37
2018-10-19T14:09:07.616Z,46.77
2018-10-19T14:11:35.822Z,46.00
2018-10-19T14:14:04.330Z,46.80
2018-10-19T14:16:32.569Z,44.47
2018-10-19T14:19:00.863Z,43.10
2018-10-19T14:21:29.252Z,44.83
2018-10-19T14:23:57.453Z,48.30
2018-10-19T14:26:25.900Z,45.60
2018-10-19T14:28:54.320Z,48.60
2018-10-19T14:31:22.594Z,46.67
2018-10-19T14:33:50.887Z,46.00
2018-10-19T14:36:19.106Z,48.00
2018-10-19T14:38:47.414Z,43.90
2018-10-19T14:41:15.702Z,46.10
2018-10-19T14:43:43.904Z,45.87
2018-10-19T14:46:12.128Z,46.83
2018-10-19T14:48:40.430Z,45.53
2018-10-19T14:51:08.689Z,45.50
2018-10-19T14:53:36.948Z,46.90
2018-10-19T14:56:05.190Z,45.40
2018-10-19T14:58:33.441Z,45.63
2018-10-19T15:01:01.726Z,45.57
2018-10-19T15:03:29.990Z,46.33
2018-10-19T15:05:58.247Z,46.37
2018-10-19T15:08:26.487Z,47.87
2018-10-19T15:10:54.883Z,46.77
2018-10-19T15:13:22.946Z,46.40
2018-10-19T15:15:51.207Z,51.37
2018-10-19T15:18:19.440Z,48.23
2018-10-19T15:20:47.661Z,47.67
2018-10-19T15:23:15.891Z,47.17
2018-10-19T15:25:44.182Z,46.03
2018-10-19T15:28:12.506Z,46.37
2018-10-19T15:30:40.750Z,48.00
2018-10-19T15:33:08.999Z,47.77
2018-10-19T15:35:37.226Z,48.13
2018-10-19T15:38:05.480Z,49.20
2018-10-19T15:40:33.761Z,46.30
2018-10-19T15:43:01.957Z,46.70
2018-10-19T15:45:30.309Z,45.33
2018-10-19T15:47:58.605Z,47.40
2018-10-19T15:50:26.826Z,49.17
2018-10-19T15:52:55.065Z,46.70
2018-10-19T15:55:23.284Z,47.40
2018-10-19T15:57:51.648Z,47.10
2018-10-19T16:00:20.060Z,49.73
2018-10-19T16:02:48.140Z,47.20
2018-10-19T16:05:16.340Z,47.47
2018-10-19T16:07:44.657Z,44.30
2018-10-19T16:10:12.912Z,47.30
2018-10-19T16:12:41.126Z,46.47
2018-10-19T16:15:10.147Z,42.87
2018-10-19T16:17:38.438Z,46.53
2018-10-19T16:20:08.380Z,49.17
2018-10-19T16:22:36.656Z,47.60
2018-10-19T16:25:05.766Z,48.57
2018-10-19T16:27:34.117Z,46.00
2018-10-19T16:30:02.244Z,48.87
2018-10-19T16:32:30.570Z,48.60
2018-10-19T16:34:58.794Z,47.80
2018-10-19T16:37:27.061Z,46.07
2018-10-19T16:39:55.281Z,46.90
2018-10-19T16:42:23.497Z,47.00
2018-10-19T16:44:51.710Z,46.27
2018-10-19T16:47:19.961Z,45.93
2018-10-19T16:49:48.251Z,44.40
2018-10-19T16:52:16.527Z,47.67
2018-10-19T16:54:44.689Z,45.80
2018-10-19T16:57:12.979Z,46.80
2018-10-19T16:59:41.166Z,47.67
2018-10-19T17:02:09.398Z,49.30
2018-10-19T17:04:37.677Z,49.70
2018-10-19T17:07:05.949Z,50.00
2018-10-19T17:09:34.158Z,49.63
2018-10-19T17:12:02.443Z,47.90
2018-10-19T17:14:30.669Z,47.93
2018-10-19T17:16:58.965Z,47.60
2018-10-19T17:19:27.230Z,45.47
2018-10-19T17:21:55.441Z,43.50
2018-10-19T17:24:23.751Z,46.17
2018-10-19T17:26:51.897Z,45.20
2018-10-19T17:29:20.212Z,48.33
2018-10-19T17:31:48.421Z,46.87
2018-10-19T17:34:16.646Z,46.40
2018-10-19T17:36:44.870Z,47.43
2018-10-19T17:39:13.153Z,44.87
2018-10-19T17:41:41.335Z,43.30
2018-10-19T17:44:09.627Z,45.33
2018-10-19T17:46:37.878Z,44.53
2018-10-19T17:49:06.120Z,47.10
2018-10-19T17:51:34.294Z,46.87
2018-10-19T17:54:02.639Z,48.87
2018-10-19T17:56:30.794Z,48.80
2018-10-19T17:58:59.044Z,46.63
2018-10-19T18:01:27.307Z,49.87
2018-10-19T18:03:55.552Z,47.20
2018-10-19T18:06:23.835Z,45.20
2018-10-19T18:08:52.171Z,43.80
2018-10-19T18:11:20.518Z,43.77
2018-10-19T18:13:48.730Z,44.90
2018-10-19T18:16:16.977Z,47.10
2018-10-19T18:18:45.257Z,46.97
2018-10-19T18:21:13.500Z,45.40
2018-10-19T18:23:42.584Z,46.27
2018-10-19T18:26:10.845Z,45.40
2018-10-19T18:28:38.974Z,46.13
2018-10-19T18:31:06.886Z,46.37
2018-10-19T18:33:35.103Z,46.03
2018-10-19T18:36:03.333Z,47.43
2018-10-19T18:38:31.558Z,46.73
2018-10-19T18:40:59.950Z,46.67
2018-10-19T18:43:28.107Z,46.03
2018-10-19T18:45:56.291Z,47.80
2018-10-19T18:48:24.548Z,46.10
2018-10-19T18:50:52.877Z,47.13
2018-10-19T18:53:21.088Z,47.30
2018-10-19T18:55:49.334Z,48.57
2018-10-19T18:58:17.663Z,46.13
2018-10-19T19:00:46.477Z,47.23
2018-10-19T19:03:14.719Z,47.47
2018-10-19T19:05:42.892Z,47.37
2018-10-19T19:08:11.166Z,47.30
2018-10-19T19:10:39.392Z,48.20
2018-10-19T19:13:13.088Z,50.67
2018-10-19T19:15:41.470Z,51.00
2018-10-19T19:18:09.686Z,51.13
2018-10-19T19:20:37.881Z,52.30
2018-10-19T19:23:06.322Z,52.50
2018-10-19T19:25:39.794Z,50.17
2018-10-19T19:28:08.019Z,49.27
2018-10-19T19:30:36.286Z,53.20
2018-10-19T19:33:10.003Z,49.50
2018-10-19T19:35:38.215Z,49.13
2018-10-19T19:38:06.496Z,51.40
2018-10-19T19:40:40.070Z,49.93
2018-10-19T19:43:08.325Z,49.63
2018-10-19T19:45:36.566Z,50.10
2018-10-19T19:48:10.244Z,52.83
2018-10-19T19:50:38.636Z,52.50
2018-10-19T19:53:06.855Z,54.00
2018-10-19T19:55:35.085Z,53.80
2018-10-19T19:58:03.354Z,52.57
2018-10-19T20:00:31.585Z,53.20
2018-10-19T20:02:59.799Z,52.17
2018-10-19T20:05:27.985Z,54.93
2018-10-19T20:07:56.283Z,55.93
2018-10-19T20:10:24.469Z,54.30
2018-10-19T20:12:52.745Z,56.20
2018-10-19T20:15:20.974Z,55.83
2018-10-19T20:17:49.166Z,56.27
2018-10-19T20:20:17.470Z,54.23
2018-10-19T20:22:45.617Z,54.53
2018-10-19T20:25:13.883Z,54.20
2018-10-19T20:27:42.097Z,56.97
2018-10-19T20:30:12.039Z,56.97
2018-10-19T20:32:40.410Z,58.63
2018-10-19T20:35:08.918Z,57.70
2018-10-19T20:37:37.052Z,57.57
2018-10-19T20:40:05.269Z,55.40
2018-10-19T20:42:33.458Z,54.03
2018-10-19T20:45:01.732Z,55.47
2018-10-19T20:47:29.941Z,53.23
2018-10-19T20:49:58.203Z,54.50
2018-10-19T20:52:26.341Z,53.73
2018-10-19T20:54:54.574Z,53.90
2018-10-19T20:57:22.831Z,52.60
2018-10-19T20:59:51.038Z,54.93
2018-10-19T21:02:19.274Z,52.07
2018-10-19T21:04:47.492Z,52.03
2018-10-19T21:07:15.749Z,52.70
2018-10-19T21:09:43.898Z,59.37
2018-10-19T21:12:12.077Z,54.23
2018-10-19T21:14:40.253Z,57.43
2018-10-19T21:17:08.485Z,57.70
2018-10-19T21:19:36.682Z,56.97
2018-10-19T21:22:05.597Z,54.70
2018-10-19T21:24:33.756Z,54.33
2018-10-19T21:27:01.937Z,53.80
2018-10-19T21:29:30.106Z,54.00
2018-10-19T21:31:58.295Z,56.73
2018-10-19T21:34:26.453Z,55.03
2018-10-19T21:36:54.645Z,56.70
2018-10-19T21:39:22.577Z,56.77
2018-10-19T21:41:50.738Z,55.27
2018-10-19T21:44:18.899Z,56.27
2018-10-19T21:46:47.081Z,56.27
2018-10-19T21:49:15.318Z,54.87
2018-10-19T21:51:43.803Z,57.67
2018-10-19T21:54:11.928Z,57.47
2018-10-19T21:56:40.114Z,54.33
2018-10-19T21:59:08.346Z,56.90
2018-10-19T22:01:36.505Z,57.13
2018-10-19T22:04:04.683Z,54.53
2018-10-19T22:06:32.856Z,56.63
2018-10-19T22:09:01.013Z,51.53
2018-10-19T22:11:29.182Z,55.07
2018-10-19T22:13:57.342Z,54.50
2018-10-19T22:16:25.521Z,51.03
2018-10-19T22:18:53.693Z,55.23
2018-10-19T22:21:21.942Z,56.30
2018-10-19T22:23:50.102Z,55.97
2018-10-19T22:26:18.361Z,57.30
2018-10-19T22:28:46.742Z,57.40
2018-10-19T22:31:15.129Z,56.70
2018-10-19T22:33:43.218Z,62.00
2018-10-19T22:36:11.866Z,58.97
2018-10-19T22:38:40.048Z,58.13
2018-10-19T22:41:08.320Z,59.13
2018-10-19T22:43:36.441Z,60.70
2018-10-19T22:46:04.763Z,58.27
2018-10-19T22:48:32.942Z,59.90
2018-10-19T22:51:01.253Z,60.17
2018-10-19T22:53:29.418Z,60.57
2018-10-19T22:55:57.594Z,58.63
2018-10-19T22:58:25.753Z,58.43
2018-10-19T23:00:56.366Z,58.37
2018-10-19T23:03:24.635Z,56.63
2018-10-19T23:05:52.841Z,56.37
2018-10-19T23:08:21.193Z,58.60
2018-10-19T23:10:49.429Z,58.50
2018-10-19T23:13:17.695Z,60.70
2018-10-19T23:15:46.011Z,58.80
2018-10-19T23:18:14.444Z,61.90
2018-10-19T23:20:42.745Z,58.90
2018-10-19T23:23:11.006Z,56.87
2018-10-19T23:25:39.351Z,57.70
2018-10-19T23:28:08.176Z,57.43
2018-10-19T23:30:37.423Z,58.83
2018-10-19T23:33:05.804Z,56.00
2018-10-19T23:35:33.961Z,56.90
2018-10-19T23:38:02.147Z,56.90
2018-10-19T23:40:30.318Z,57.50
2018-10-19T23:42:58.497Z,58.97
2018-10-19T23:45:26.669Z,57.90
2018-10-19T23:47:54.841Z,58.13
2018-10-19T23:50:23.041Z,58.10
2018-10-19T23:52:51.225Z,61.73
2018-10-19T23:55:19.426Z,59.60
2018-10-19T23:57:47.621Z,63.57
